Terminal Aerodrome Forecast
Issued by NWS

Home | Current Version | Previous Version | Text Only | Print | Product List | Glossary On
Versions: 1 2 3 4 5 6 7 8 9 10 11 12 13
000
FTPA31 PHFO 170521
TAFHOG
TAF
PHOG 170521Z 1706/1806 04013KT P6SM VCSH FEW025 BKN050
     FM171900 04016G23KT P6SM VCSH FEW025 SCT050
     FM172200 05025G32KT P6SM FEW035 SCT050
      AMD LTD TO VIS AND WIND 1709/1716=

USA.gov is the U.S. government's official web portal to all federal, state and local government web resources and services.